Terminal Aerodrome Forecast
Issued by NWS

Home | Current Version | Previous Version | Text Only | Print | Product List | Glossary On
Versions: 1 2 3 4 5 6 7 8 9 10 11 12 13 14 15
000
FTUS41 KBTV 240521
TAFMPV
TAF
KMPV 240521Z 2406/2506 VRB04KT P6SM VCSH BKN050
      TEMPO 2406/2409 2SM RA BR OVC020
     FM240900 VRB04KT 5SM BR VCSH OVC030
      TEMPO 2409/2412 2SM BR OVC010
     FM241300 29005KT P6SM BKN030
     FM241600 31010KT P6SM SCT120
     FM250000 VRB03KT P6SM SCT150=

USA.gov is the U.S. government's official web portal to all federal, state and local government web resources and services.